Time,TemperatureF,DewpointF,PressureIn,WindDirection,WindDirectionDegrees,WindSpeedMPH,WindSpeedGustMPH,Humidity,HourlyPrecipIn,Conditions,Clouds,dailyrainin,SoftwareType,DateUTC
2013-05-21 00:03:00,56.2,40.1,29.87,West,270,1.8,2.0,55,0.00,,,0.00,WUHU216HW,2013-05-21 06:03:00,
2013-05-21 00:13:00,56.0,39.5,29.87,South,180,0.0,2.0,54,0.00,,,0.00,WUHU216HW,2013-05-21 06:13:00,
2013-05-21 00:23:00,55.8,39.8,29.87,SW,225,1.6,1.8,55,0.00,,,0.00,WUHU216HW,2013-05-21 06:23:00,
2013-05-21 00:33:00,55.3,39.7,29.87,SSW,203,0.9,1.8,56,0.00,,,0.00,WUHU216HW,2013-05-21 06:33:00,
2013-05-21 00:43:00,55.1,40.1,29.87,SW,225,1.8,2.2,57,0.00,,,0.00,WUHU216HW,2013-05-21 06:43:00,
2013-05-21 00:53:00,54.5,40.1,29.86,WSW,248,1.1,2.5,58,0.00,,,0.00,WUHU216HW,2013-05-21 06:53:00,
2013-05-21 01:03:00,54.2,39.7,29.86,SW,225,0.0,1.3,58,0.00,,,0.00,WUHU216HW,2013-05-21 07:03:00,
2013-05-21 01:13:00,54.0,40.0,29.86,South,180,0.0,0.9,59,0.00,,,0.00,WUHU216HW,2013-05-21 07:13:00,
2013-05-21 01:23:00,53.6,39.7,29.85,WSW,248,0.0,1.1,59,0.00,,,0.00,WUHU216HW,2013-05-21 07:23:00,
2013-05-21 01:34:00,53.3,39.8,29.85,SSW,203,0.4,1.1,60,0.00,,,0.00,WUHU216HW,2013-05-21 07:34:00,
2013-05-21 01:44:00,52.9,39.4,29.85,SSW,203,0.0,0.0,60,0.00,,,0.00,WUHU216HW,2013-05-21 07:44:00,
2013-05-21 01:54:00,52.6,39.5,29.85,SSW,203,1.6,1.6,61,0.00,,,0.00,WUHU216HW,2013-05-21 07:54:00,
2013-05-21 02:04:00,52.2,39.5,29.84,South,180,1.8,1.8,62,0.00,,,0.00,WUHU216HW,2013-05-21 08:04:00,
2013-05-21 02:14:00,51.8,39.2,29.84,SSW,203,0.4,1.1,62,0.00,,,0.00,WUHU216HW,2013-05-21 08:14:00,
2013-05-21 02:24:00,51.7,39.4,29.84,SSW,203,0.0,1.1,63,0.00,,,0.00,WUHU216HW,2013-05-21 08:24:00,
2013-05-21 02:34:00,51.5,39.2,29.84,SW,225,1.1,1.8,63,0.00,,,0.00,WUHU216HW,2013-05-21 08:34:00,
2013-05-21 02:44:00,51.3,39.5,29.84,SW,225,2.5,2.5,64,0.00,,,0.00,WUHU216HW,2013-05-21 08:44:00,
2013-05-21 02:54:00,50.9,39.2,29.84,SW,225,2.9,2.9,64,0.00,,,0.00,WUHU216HW,2013-05-21 08:54:00,
2013-05-21 03:04:00,50.8,39.4,29.83,SSW,203,0.9,2.9,65,0.00,,,0.00,WUHU216HW,2013-05-21 09:04:00,
2013-05-21 03:14:00,50.8,39.4,29.83,South,180,1.8,2.7,65,0.00,,,0.00,WUHU216HW,2013-05-21 09:14:00,
2013-05-21 03:24:00,50.6,39.3,29.83,SSW,203,3.1,3.1,65,0.00,,,0.00,WUHU216HW,2013-05-21 09:24:00,
2013-05-21 03:34:00,50.6,39.6,29.83,South,180,3.8,6.0,66,0.00,,,0.00,WUHU216HW,2013-05-21 09:34:00,
2013-05-21 03:44:00,50.4,39.1,29.82,SE,135,1.8,4.5,65,0.00,,,0.00,WUHU216HW,2013-05-21 09:44:00,
2013-05-21 03:58:00,50.0,38.7,29.82,South,180,2.5,2.5,65,0.00,,,0.00,WUHU216HW,2013-05-21 09:58:00,
2013-05-21 04:12:00,49.7,38.8,29.81,South,180,3.4,3.4,66,0.00,,,0.00,WUHU216HW,2013-05-21 10:12:00,
2013-05-21 04:26:00,49.1,39.0,29.81,SSW,203,4.0,5.8,68,0.00,,,0.00,WUHU216HW,2013-05-21 10:26:00,
2013-05-21 04:36:00,48.8,38.6,29.81,WSW,248,1.6,5.4,68,0.00,,,0.00,WUHU216HW,2013-05-21 10:36:00,
2013-05-21 04:46:00,49.0,38.8,29.81,South,180,4.7,4.7,68,0.00,,,0.00,WUHU216HW,2013-05-21 10:46:00,
2013-05-21 04:56:00,48.6,38.9,29.81,SSW,203,3.4,4.9,69,0.00,,,0.00,WUHU216HW,2013-05-21 10:56:00,
2013-05-21 05:06:00,48.2,38.9,29.80,SSW,203,4.3,6.3,70,0.00,,,0.00,WUHU216HW,2013-05-21 11:06:00,
2013-05-21 05:16:00,48.1,39.1,29.80,South,180,4.7,6.3,71,0.00,,,0.00,WUHU216HW,2013-05-21 11:16:00,
2013-05-21 05:26:00,47.9,38.9,29.80,SE,135,4.5,5.1,71,0.00,,,0.00,WUHU216HW,2013-05-21 11:26:00,
2013-05-21 05:36:00,47.7,39.1,29.80,SSE,158,3.8,6.3,72,0.00,,,0.00,WUHU216HW,2013-05-21 11:36:00,
2013-05-21 05:46:00,47.5,38.9,29.80,SSW,203,5.4,5.4,72,0.00,,,0.00,WUHU216HW,2013-05-21 11:46:00,
2013-05-21 05:56:00,47.2,38.6,29.80,SSE,158,3.4,4.9,72,0.00,,,0.00,WUHU216HW,2013-05-21 11:56:00,
2013-05-21 06:06:00,47.2,39.0,29.80,South,180,7.2,7.2,73,0.00,,,0.00,WUHU216HW,2013-05-21 12:06:00,
2013-05-21 06:16:00,46.8,39.0,29.80,South,180,3.6,6.7,74,0.00,,,0.00,WUHU216HW,2013-05-21 12:16:00,
2013-05-21 06:26:00,47.0,39.2,29.80,South,180,5.8,6.7,74,0.00,,,0.00,WUHU216HW,2013-05-21 12:26:00,
2013-05-21 06:36:00,47.7,39.8,29.79,SW,225,3.4,6.5,74,0.00,,,0.00,WUHU216HW,2013-05-21 12:36:00,
2013-05-21 06:46:00,48.6,40.6,29.79,SSW,203,5.6,6.9,74,0.00,,,0.00,WUHU216HW,2013-05-21 12:46:00,
2013-05-21 06:56:00,49.9,41.2,29.79,SSW,203,3.8,7.2,72,0.00,,,0.00,WUHU216HW,2013-05-21 12:56:00,
2013-05-21 07:06:00,50.0,41.1,29.79,South,180,4.0,7.6,71,0.00,,,0.00,WUHU216HW,2013-05-21 13:06:00,
2013-05-21 07:16:00,49.7,40.7,29.79,SSW,203,5.4,6.0,71,0.00,,,0.00,WUHU216HW,2013-05-21 13:16:00,
2013-05-21 07:26:00,49.3,40.3,29.78,South,180,4.7,7.4,71,0.00,,,0.00,WUHU216HW,2013-05-21 13:26:00,
2013-05-21 07:36:00,49.9,41.2,29.78,SSW,203,6.9,6.9,72,0.00,,,0.00,WUHU216HW,2013-05-21 13:36:00,
2013-05-21 07:46:00,51.5,42.5,29.78,South,180,4.9,5.4,71,0.00,,,0.00,WUHU216HW,2013-05-21 13:46:00,
2013-05-21 07:56:00,52.9,43.8,29.77,SE,135,4.0,7.2,71,0.00,,,0.00,WUHU216HW,2013-05-21 13:56:00,
2013-05-21 08:07:00,54.2,44.3,29.77,SSE,158,6.3,6.3,69,0.00,,,0.00,WUHU216HW,2013-05-21 14:07:00,
2013-05-21 08:17:00,55.1,44.3,29.77,SW,225,2.9,5.6,67,0.00,,,0.00,WUHU216HW,2013-05-21 14:17:00,
2013-05-21 08:27:00,56.2,44.9,29.77,SW,225,2.5,6.3,66,0.00,,,0.00,WUHU216HW,2013-05-21 14:27:00,
2013-05-21 08:37:00,57.1,45.8,29.76,SSW,203,3.4,3.8,66,0.00,,,0.00,WUHU216HW,2013-05-21 14:37:00,
2013-05-21 08:47:00,57.8,45.6,29.76,South,180,4.7,5.1,64,0.00,,,0.00,WUHU216HW,2013-05-21 14:47:00,
2013-05-21 08:57:00,58.7,46.5,29.76,South,180,2.5,6.7,64,0.00,,,0.00,WUHU216HW,2013-05-21 14:57:00,
2013-05-21 09:07:00,59.6,46.5,29.75,WSW,248,4.5,6.3,62,0.00,,,0.00,WUHU216HW,2013-05-21 15:07:00,
2013-05-21 09:17:00,60.5,46.6,29.75,WSW,248,4.7,6.9,60,0.00,,,0.00,WUHU216HW,2013-05-21 15:17:00,
2013-05-21 09:27:00,60.8,46.5,29.74,SSE,158,4.7,6.3,59,0.00,,,0.00,WUHU216HW,2013-05-21 15:27:00,
2013-05-21 09:37:00,61.4,46.5,29.74,SW,225,2.0,7.6,58,0.00,,,0.00,WUHU216HW,2013-05-21 15:37:00,
2013-05-21 09:47:00,61.9,47.4,29.74,SSE,158,3.4,4.3,59,0.00,,,0.00,WUHU216HW,2013-05-21 15:47:00,
2013-05-21 09:57:00,62.3,47.4,29.73,SSE,158,1.3,4.0,58,0.00,,,0.00,WUHU216HW,2013-05-21 15:57:00,
2013-05-21 10:07:00,62.6,47.2,29.73,SSE,158,2.5,3.4,57,0.00,,,0.00,WUHU216HW,2013-05-21 16:07:00,
2013-05-21 10:17:00,64.1,48.4,29.73,SE,135,2.0,4.5,57,0.00,,,0.00,WUHU216HW,2013-05-21 16:17:00,
2013-05-21 10:27:00,65.5,47.9,29.72,SSW,203,3.4,4.0,53,0.00,,,0.00,WUHU216HW,2013-05-21 16:27:00,
2013-05-21 10:37:00,66.2,48.6,29.71,West,270,2.5,4.0,53,0.00,,,0.00,WUHU216HW,2013-05-21 16:37:00,
2013-05-21 10:47:00,66.6,48.0,29.71,North,0,1.1,4.0,51,0.00,,,0.00,WUHU216HW,2013-05-21 16:47:00,
2013-05-21 10:57:00,67.0,48.3,29.70,SW,225,0.4,2.0,51,0.00,,,0.00,WUHU216HW,2013-05-21 16:57:00,
2013-05-21 11:07:00,67.3,47.5,29.70,North,0,2.0,2.9,49,0.00,,,0.00,WUHU216HW,2013-05-21 17:07:00,
2013-05-21 11:17:00,67.7,48.4,29.69,SSE,158,1.3,1.8,50,0.00,,,0.00,WUHU216HW,2013-05-21 17:17:00,
2013-05-21 11:27:00,68.0,47.0,29.69,NNW,338,1.3,4.5,47,0.00,,,0.00,WUHU216HW,2013-05-21 17:27:00,
2013-05-21 11:37:00,67.7,47.3,29.68,East,90,2.2,5.4,48,0.00,,,0.00,WUHU216HW,2013-05-21 17:37:00,
2013-05-21 11:47:00,68.0,47.6,29.68,West,270,2.5,3.4,48,0.00,,,0.00,WUHU216HW,2013-05-21 17:47:00,
2013-05-21 11:57:00,68.6,48.1,29.67,SW,225,0.9,2.5,48,0.00,,,0.00,WUHU216HW,2013-05-21 17:57:00,
2013-05-21 12:07:00,69.1,48.0,29.66,SSE,158,1.3,4.0,47,0.00,,,0.00,WUHU216HW,2013-05-21 18:07:00,
2013-05-21 12:18:00,70.2,49.0,29.66,ESE,113,1.3,2.5,47,0.00,,,0.00,WUHU216HW,2013-05-21 18:18:00,
2013-05-21 12:28:00,70.9,49.0,29.66,ENE,68,1.8,4.5,46,0.00,,,0.00,WUHU216HW,2013-05-21 18:28:00,
2013-05-21 12:38:00,71.5,48.3,29.65,WNW,293,2.7,3.1,44,0.00,,,0.00,WUHU216HW,2013-05-21 18:38:00,
2013-05-21 12:48:00,72.2,49.5,29.65,NNE,23,0.2,2.0,45,0.00,,,0.00,WUHU216HW,2013-05-21 18:48:00,
2013-05-21 12:58:00,73.6,50.2,29.64,South,180,3.4,4.9,44,0.00,,,0.00,WUHU216HW,2013-05-21 18:58:00,
2013-05-21 13:08:00,74.3,50.3,29.63,North,0,0.7,4.7,43,0.00,,,0.00,WUHU216HW,2013-05-21 19:08:00,
2013-05-21 13:18:00,73.8,47.3,29.63,WSW,248,12.1,12.1,39,0.00,,,0.00,WUHU216HW,2013-05-21 19:18:00,
2013-05-21 13:28:00,74.0,46.7,29.62,SSE,158,3.4,7.2,38,0.00,,,0.00,WUHU216HW,2013-05-21 19:28:00,
2013-05-21 13:38:00,75.1,46.9,29.61,SSE,158,3.8,5.4,37,0.00,,,0.00,WUHU216HW,2013-05-21 19:38:00,
2013-05-21 13:48:00,76.3,46.5,29.61,WSW,248,2.5,6.9,35,0.00,,,0.00,WUHU216HW,2013-05-21 19:48:00,
2013-05-21 13:58:00,77.2,46.5,29.60,SSW,203,9.4,9.4,34,0.00,,,0.00,WUHU216HW,2013-05-21 19:58:00,
2013-05-21 14:08:00,77.2,46.5,29.60,SSE,158,3.8,4.7,34,0.00,,,0.00,WUHU216HW,2013-05-21 20:08:00,
2013-05-21 14:18:00,77.6,45.4,29.59,SSE,158,5.6,5.6,32,0.00,,,0.00,WUHU216HW,2013-05-21 20:18:00,
2013-05-21 14:28:00,77.6,46.1,29.58,SSW,203,0.7,3.1,33,0.00,,,0.00,WUHU216HW,2013-05-21 20:28:00,
2013-05-21 14:38:00,77.6,46.1,29.58,SSE,158,1.3,3.4,33,0.00,,,0.00,WUHU216HW,2013-05-21 20:38:00,
2013-05-21 14:48:00,77.8,44.7,29.57,NW,315,1.8,3.6,31,0.00,,,0.00,WUHU216HW,2013-05-21 20:48:00,
2013-05-21 14:58:00,76.7,44.6,29.57,NNE,23,2.2,4.7,32,0.00,,,0.00,WUHU216HW,2013-05-21 20:58:00,
2013-05-21 15:08:00,76.9,45.5,29.56,West,270,0.7,3.1,33,0.00,,,0.00,WUHU216HW,2013-05-21 21:08:00,
2013-05-21 15:18:00,77.8,45.5,29.56,WNW,293,1.1,2.9,32,0.00,,,0.00,WUHU216HW,2013-05-21 21:18:00,
2013-05-21 15:28:00,78.1,46.5,29.56,South,180,0.2,2.2,33,0.00,,,0.00,WUHU216HW,2013-05-21 21:28:00,
2013-05-21 15:38:00,77.9,44.8,29.55,NNE,23,3.6,5.1,31,0.00,,,0.00,WUHU216HW,2013-05-21 21:38:00,
2013-05-21 15:49:00,77.2,44.3,29.55,NNE,23,3.6,6.3,31,0.00,,,0.00,WUHU216HW,2013-05-21 21:49:00,
2013-05-21 15:59:00,77.0,44.1,29.54,North,0,2.9,2.9,31,0.00,,,0.00,WUHU216HW,2013-05-21 21:59:00,
2013-05-21 16:09:00,76.7,43.8,29.55,ENE,68,10.3,10.3,31,0.00,,,0.00,WUHU216HW,2013-05-21 22:09:00,
2013-05-21 16:19:00,76.0,45.5,29.54,NE,45,2.5,5.4,34,0.00,,,0.00,WUHU216HW,2013-05-21 22:19:00,
2013-05-21 16:29:00,75.6,44.4,29.53,NE,45,4.0,5.4,33,0.00,,,0.00,WUHU216HW,2013-05-21 22:29:00,
2013-05-21 16:39:00,74.9,43.8,29.53,SE,135,4.9,8.5,33,0.00,,,0.00,WUHU216HW,2013-05-21 22:39:00,
2013-05-21 16:49:00,74.0,42.9,29.53,East,90,8.1,8.3,33,0.00,,,0.00,WUHU216HW,2013-05-21 22:49:00,
2013-05-21 16:59:00,72.4,41.5,29.53,North,0,11.0,11.0,33,0.00,,,0.00,WUHU216HW,2013-05-21 22:59:00,
2013-05-21 17:09:00,72.2,42.8,29.53,ESE,113,2.5,10.1,35,0.00,,,0.00,WUHU216HW,2013-05-21 23:09:00,
2013-05-21 17:19:00,72.4,44.5,29.53,SE,135,1.1,3.4,37,0.00,,,0.00,WUHU216HW,2013-05-21 23:19:00,
2013-05-21 17:29:00,72.2,45.8,29.53,ESE,113,6.3,10.3,39,0.00,,,0.00,WUHU216HW,2013-05-21 23:29:00,
2013-05-21 17:39:00,70.9,43.2,29.52,SE,135,6.9,6.9,37,0.00,,,0.00,WUHU216HW,2013-05-21 23:39:00,
2013-05-21 17:49:00,70.6,43.7,29.52,ENE,68,4.7,6.3,38,0.00,,,0.00,WUHU216HW,2013-05-21 23:49:00,
2013-05-21 17:59:00,70.9,43.9,29.52,North,0,3.1,8.7,38,0.00,,,0.00,WUHU216HW,2013-05-21 23:59:00,
2013-05-21 18:09:00,70.9,43.2,29.52,ENE,68,4.7,8.9,37,0.00,,,0.00,WUHU216HW,2013-05-22 00:09:00,
2013-05-21 18:19:00,71.5,44.5,29.52,SE,135,1.1,4.5,38,0.00,,,0.00,WUHU216HW,2013-05-22 00:19:00,
2013-05-21 18:29:00,71.5,44.5,29.51,ESE,113,8.5,8.7,38,0.00,,,0.00,WUHU216HW,2013-05-22 00:29:00,
2013-05-21 18:39:00,72.2,45.1,29.51,ESE,113,6.5,10.1,38,0.00,,,0.00,WUHU216HW,2013-05-22 00:39:00,
2013-05-21 18:49:00,72.9,44.2,29.51,SE,135,5.4,8.9,36,0.00,,,0.00,WUHU216HW,2013-05-22 00:49:00,
2013-05-21 18:59:00,72.4,42.3,29.52,NE,45,9.4,9.4,34,0.00,,,0.00,WUHU216HW,2013-05-22 00:59:00,
2013-05-21 19:09:00,70.6,41.4,29.51,East,90,9.2,15.7,35,0.00,,,0.00,WUHU216HW,2013-05-22 01:09:00,
2013-05-21 19:19:00,70.4,42.8,29.51,SE,135,5.6,14.3,37,0.00,,,0.00,WUHU216HW,2013-05-22 01:19:00,
2013-05-21 19:29:00,70.6,42.9,29.50,North,0,1.6,9.2,37,0.00,,,0.00,WUHU216HW,2013-05-22 01:29:00,
2013-05-21 19:39:00,70.4,41.2,29.50,ENE,68,4.5,8.7,35,0.00,,,0.00,WUHU216HW,2013-05-22 01:39:00,
2013-05-21 19:50:00,69.8,42.2,29.50,NNE,23,8.1,10.5,37,0.00,,,0.00,WUHU216HW,2013-05-22 01:50:00,
2013-05-21 20:00:00,69.5,42.7,29.50,West,270,1.1,6.7,38,0.00,,,0.00,WUHU216HW,2013-05-22 02:00:00,
2013-05-21 20:10:00,69.5,43.4,29.50,WSW,248,3.4,4.7,39,0.00,,,0.00,WUHU216HW,2013-05-22 02:10:00,
2013-05-21 20:20:00,69.1,42.3,29.50,North,0,1.3,5.1,38,0.00,,,0.00,WUHU216HW,2013-05-22 02:20:00,
2013-05-21 20:30:00,68.8,42.8,29.50,WNW,293,3.6,5.1,39,0.00,,,0.00,WUHU216HW,2013-05-22 02:30:00,
2013-05-21 20:40:00,68.0,42.8,29.50,WSW,248,4.0,10.5,40,0.00,,,0.00,WUHU216HW,2013-05-22 02:40:00,
2013-05-21 20:50:00,67.1,42.0,29.50,SSW,203,2.5,10.5,40,0.00,,,0.00,WUHU216HW,2013-05-22 02:50:00,
2013-05-21 21:00:00,66.6,41.6,29.50,South,180,4.9,7.6,40,0.00,,,0.00,WUHU216HW,2013-05-22 03:00:00,
2013-05-21 21:10:00,66.2,41.2,29.51,WSW,248,6.3,7.6,40,0.00,,,0.00,WUHU216HW,2013-05-22 03:10:00,
2013-05-21 21:20:00,65.9,41.5,29.51,WNW,293,6.9,9.8,41,0.00,,,0.00,WUHU216HW,2013-05-22 03:20:00,
2013-05-21 21:30:00,65.3,41.6,29.53,NE,45,0.7,5.1,42,0.00,,,0.00,WUHU216HW,2013-05-22 03:30:00,
2013-05-21 21:40:00,64.8,42.2,29.53,ESE,113,2.5,4.7,44,0.00,,,0.00,WUHU216HW,2013-05-22 03:40:00,
2013-05-21 21:50:00,64.6,41.5,29.53,SE,135,1.1,9.2,43,0.00,,,0.00,WUHU216HW,2013-05-22 03:50:00,
2013-05-21 22:00:00,65.0,41.9,29.54,SW,225,8.1,8.5,43,0.00,,,0.00,WUHU216HW,2013-05-22 04:00:00,
2013-05-21 22:10:00,64.4,42.0,29.55,WSW,248,6.9,9.8,44,0.00,,,0.00,WUHU216HW,2013-05-22 04:10:00,
2013-05-21 22:20:00,63.7,42.4,29.55,NNE,23,9.8,12.1,46,0.00,,,0.00,WUHU216HW,2013-05-22 04:20:00,
2013-05-21 22:30:00,62.3,42.3,29.55,NW,315,6.3,9.6,48,0.00,,,0.00,WUHU216HW,2013-05-22 04:30:00,
2013-05-21 22:40:00,61.4,42.6,29.56,NW,315,6.9,9.6,50,0.00,,,0.00,WUHU216HW,2013-05-22 04:40:00,
2013-05-21 22:50:00,61.4,43.6,29.55,NNW,338,7.6,9.8,52,0.00,,,0.00,WUHU216HW,2013-05-22 04:50:00,
2013-05-21 23:00:00,61.0,44.2,29.56,NNW,338,6.7,9.4,54,0.00,,,0.00,WUHU216HW,2013-05-22 05:00:00,
2013-05-21 23:10:00,60.8,43.1,29.56,NW,315,6.7,11.4,52,0.00,,,0.00,WUHU216HW,2013-05-22 05:10:00,
2013-05-21 23:20:00,60.1,42.4,29.55,WNW,293,1.1,5.8,52,0.00,,,0.00,WUHU216HW,2013-05-22 05:20:00,
2013-05-21 23:30:00,59.8,42.6,29.55,NW,315,4.0,4.7,53,0.00,,,0.00,WUHU216HW,2013-05-22 05:30:00,
2013-05-21 23:40:00,59.4,42.8,29.55,NW,315,1.8,5.1,54,0.00,,,0.00,WUHU216HW,2013-05-22 05:40:00,
2013-05-21 23:50:00,59.0,42.8,29.55,SW,225,1.8,3.4,55,0.00,,,0.00,WUHU216HW,2013-05-22 05:50:00,